This is the latest recevied weather packets stored in our database for station/object KD4EED. If no packets are shown the sender has not sent any weather packets the latest 10 day(s).
| Time | Temp. | Humidity | Pressure | Rain* | Wind** | Luminosity | Snow |
|---|---|---|---|---|---|---|---|
| 1788136414 | 27.78° C | 61% | 1008.2 hPa | - | - | 109 W/m² | - |
| 1788136113 | 28.33° C | 60% | 1008 hPa | - | - | 34 W/m² | - |
| 1788135812 | 27.78° C | 60% | 1008.1 hPa | - | - | 67 W/m² | - |
| 1788135508 | 27.78° C | 60% | 1007.9 hPa | - | - | 144 W/m² | - |
| 1788135202 | 27.78° C | 61% | 1008 hPa | - | - | 238 W/m² | - |
| 1788134901 | 27.78° C | 61% | 1008 hPa | - | - | 90 W/m² | - |
| 1788134600 | 27.78° C | 59% | 1008 hPa | - | - | 94 W/m² | - |
| 1788134298 | 27.78° C | 59% | 1008 hPa | - | - | 67 W/m² | - |
| 1788133994 | 28.33° C | 57% | 1007.9 hPa | - | - | 86 W/m² | - |
| 1788133689 | 28.89° C | 56% | 1007.9 hPa | - | - | 118 W/m² | - |
| 1788133384 | 28.89° C | 55% | 1007.9 hPa | - | - | 88 W/m² | - |
| 1788133080 | 29.44° C | 55% | 1008.2 hPa | - | - | 100 W/m² | - |
| 1788132775 | 30.56° C | 52% | 1008 hPa | - | - | 114 W/m² | - |
| 1788132471 | 30.56° C | 53% | 1008 hPa | - | - | 307 W/m² | - |
| 1788132167 | 30.56° C | 52% | 1007.9 hPa | - | - | 398 W/m² | - |
| 1788131863 | 30.56° C | 51% | 1008.2 hPa | - | - | 353 W/m² | - |
| 1788131562 | 31.11° C | 51% | 1008.3 hPa | - | - | 329 W/m² | - |
| 1788131257 | 31.11° C | 50% | 1008.1 hPa | - | - | 290 W/m² | - |
| 1788130953 | 31.67° C | 49% | 1008.2 hPa | - | - | 399 W/m² | - |
| 1788130667 | 31.11° C | 49% | 1008.1 hPa | - | - | 404 W/m² | - |
| 1788130347 | 31.11° C | 49% | 1008.3 hPa | - | - | 408 W/m² | - |
| 1788130046 | 31.11° C | 51% | 1008.2 hPa | - | - | 410 W/m² | - |
| 1788129742 | 31.11° C | 51% | 1008.4 hPa | - | - | 417 W/m² | - |
| 1788129438 | 31.67° C | 50% | 1008.3 hPa | - | - | 425 W/m² | - |
| 1788129134 | 31.67° C | 52% | 1008.5 hPa | - | - | 434 W/m² | - |
* Rain since midnight (hover to see other rain measurements)
** Current wind speed in m/s (hover to see current wind gust speed)